Etusivu
METAR-TAF:

METAR-TAF

Lentoasemat :

Resistencia, Argentiina

Leveyspiiri: 27-27S, Pituuspiiri: 059-03W, korkeus merenpinnasta: 53 m

Tämänhetkinen sää

Tämä raportti tehtiin 1 tunti ja 7 minuuttia sitten, kello 04.00 UTC
Tuuli 1 kn lännestä
Lämpötila 12°C
Kosteus 100%
Ilmanpaine 1014 hPa
Näkyvyys: 3000 m
utua

METAR: SARE 040400Z 28001KT 3000 BR NSC 12/12 Q1014

Aika: 02:07 (05:07 UTC)

Sääennuste

Tämä raportti tehtiin 6 tuntia ja 7 minuuttia sitten, kello 23.00 UTC
Ennuste voimassa 04. päivästä klo 00 UTC - 04. päivään klo 24 UTC
Tuuli 5 kn etelästä/kaakosta
Näkyvyys 10 km tai enemmän
ei pilviä alle 1500 m:ssä eikä cumulonimbus-pilviä
Tulossa
04. päivästä klo 05 UTC - 04. päivään klo 07 UTC
Tuuli 10 kn koillisesta

TAF: SARE 032300Z 0400/0424 16005KT CAVOK TX26/0419Z TN14/0410Z BECMG 0405/0407 05010KT

Säähavainnot ja -ennusteet yli 4000 lentoasemalta (METAR- ja TAF-raportit).

Käytössä olevat sääasemat on merkitty karttaan keltaisilla ja punaisilla pisteillä.

Aseta hiiri pisteen päälle nähdäksesi sääaseman nimen.

Klikkaa sitten nähdäksesi säähavainnot ja -ennusteet.

Kartan vaihtaminen: klikkaa mustalla rastilla varustettuja vihreitä pisteitä, niin voit zoomata sisään; viivalla varustettua vihreää pistettä, niin voit zoomata ulos tai vihreitä nuolia, niin pääset viereisille kartoille.


METAR-TAF: